sensor_id;sensor_type;location;lat;lon;timestamp;temperature;humidity
6843;DHT22;3460;52.028;8.916;2024-03-07T00:02:06;3.70;99.90
6843;DHT22;3460;52.028;8.916;2024-03-07T00:04:33;3.60;99.90
6843;DHT22;3460;52.028;8.916;2024-03-07T00:07:01;3.50;99.90
6843;DHT22;3460;52.028;8.916;2024-03-07T00:09:29;3.50;99.90
6843;DHT22;3460;52.028;8.916;2024-03-07T00:11:55;3.50;1.00
6843;DHT22;3460;52.028;8.916;2024-03-07T00:14:22;3.40;1.00
6843;DHT22;3460;52.028;8.916;2024-03-07T00:16:52;3.40;99.90
6843;DHT22;3460;52.028;8.916;2024-03-07T00:19:20;3.50;99.90
6843;DHT22;3460;52.028;8.916;2024-03-07T00:21:51;3.50;99.90
6843;DHT22;3460;52.028;8.916;2024-03-07T00:24:18;3.40;99.90
6843;DHT22;3460;52.028;8.916;2024-03-07T00:26:44;3.30;99.90
6843;DHT22;3460;52.028;8.916;2024-03-07T00:29:11;3.20;1.00
6843;DHT22;3460;52.028;8.916;2024-03-07T00:31:38;3.20;1.00
6843;DHT22;3460;52.028;8.916;2024-03-07T00:34:05;3.10;1.00
6843;DHT22;3460;52.028;8.916;2024-03-07T00:36:33;3.00;1.00
6843;DHT22;3460;52.028;8.916;2024-03-07T00:39:00;2.90;1.00
6843;DHT22;3460;52.028;8.916;2024-03-07T00:41:27;2.90;1.00
6843;DHT22;3460;52.028;8.916;2024-03-07T00:43:53;2.80;1.00
6843;DHT22;3460;52.028;8.916;2024-03-07T00:46:20;2.70;1.00
6843;DHT22;3460;52.028;8.916;2024-03-07T00:48:47;2.70;1.00
6843;DHT22;3460;52.028;8.916;2024-03-07T00:51:14;2.60;1.00
6843;DHT22;3460;52.028;8.916;2024-03-07T00:53:42;2.60;1.00
6843;DHT22;3460;52.028;8.916;2024-03-07T00:56:09;2.60;1.00
6843;DHT22;3460;52.028;8.916;2024-03-07T00:58:35;2.50;1.00
6843;DHT22;3460;52.028;8.916;2024-03-07T01:01:02;2.50;1.00
6843;DHT22;3460;52.028;8.916;2024-03-07T01:03:30;2.40;5.00
6843;DHT22;3460;52.028;8.916;2024-03-07T01:05:56;2.40;5.10
6843;DHT22;3460;52.028;8.916;2024-03-07T01:08:23;2.40;3.00
6843;DHT22;3460;52.028;8.916;2024-03-07T01:10:51;2.30;13.00
6843;DHT22;3460;52.028;8.916;2024-03-07T01:13:18;2.30;9.50
6843;DHT22;3460;52.028;8.916;2024-03-07T01:15:47;2.20;19.70
6843;DHT22;3460;52.028;8.916;2024-03-07T01:18:15;2.20;16.30
6843;DHT22;3460;52.028;8.916;2024-03-07T01:20:42;2.10;20.00
6843;DHT22;3460;52.028;8.916;2024-03-07T01:23:09;2.10;14.00
6843;DHT22;3460;52.028;8.916;2024-03-07T01:25:36;2.10;15.90
6843;DHT22;3460;52.028;8.916;2024-03-07T01:28:05;2.20;1.00
6843;DHT22;3460;52.028;8.916;2024-03-07T01:30:32;2.20;1.00
6843;DHT22;3460;52.028;8.916;2024-03-07T01:32:58;2.10;1.00
6843;DHT22;3460;52.028;8.916;2024-03-07T01:35:25;2.00;1.00
6843;DHT22;3460;52.028;8.916;2024-03-07T01:37:52;1.90;1.00
6843;DHT22;3460;52.028;8.916;2024-03-07T01:40:20;1.80;83.30
6843;DHT22;3460;52.028;8.916;2024-03-07T01:42:47;1.80;99.90
6843;DHT22;3460;52.028;8.916;2024-03-07T01:45:16;1.80;99.90
6843;DHT22;3460;52.028;8.916;2024-03-07T01:47:44;1.80;99.90
6843;DHT22;3460;52.028;8.916;2024-03-07T01:50:10;1.80;99.90
6843;DHT22;3460;52.028;8.916;2024-03-07T01:52:40;1.70;99.90
6843;DHT22;3460;52.028;8.916;2024-03-07T01:55:08;1.70;99.90
6843;DHT22;3460;52.028;8.916;2024-03-07T01:57:35;1.70;99.90
6843;DHT22;3460;52.028;8.916;2024-03-07T02:00:03;1.70;99.90
6843;DHT22;3460;52.028;8.916;2024-03-07T02:02:33;1.60;99.90
6843;DHT22;3460;52.028;8.916;2024-03-07T02:05:00;1.60;99.90
6843;DHT22;3460;52.028;8.916;2024-03-07T02:07:27;1.60;91.70
6843;DHT22;3460;52.028;8.916;2024-03-07T02:09:59;1.50;99.00
6843;DHT22;3460;52.028;8.916;2024-03-07T02:12:26;1.50;99.90
6843;DHT22;3460;52.028;8.916;2024-03-07T02:14:55;1.50;99.90
6843;DHT22;3460;52.028;8.916;2024-03-07T02:17:23;1.50;99.90
6843;DHT22;3460;52.028;8.916;2024-03-07T02:19:52;1.40;99.90
6843;DHT22;3460;52.028;8.916;2024-03-07T02:22:20;1.40;99.90
6843;DHT22;3460;52.028;8.916;2024-03-07T02:24:47;1.40;99.90
6843;DHT22;3460;52.028;8.916;2024-03-07T02:27:14;1.50;99.90
6843;DHT22;3460;52.028;8.916;2024-03-07T02:29:41;1.60;99.90
6843;DHT22;3460;52.028;8.916;2024-03-07T02:32:07;1.50;82.10
6843;DHT22;3460;52.028;8.916;2024-03-07T02:34:35;1.40;99.90
6843;DHT22;3460;52.028;8.916;2024-03-07T02:37:02;1.50;99.90
6843;DHT22;3460;52.028;8.916;2024-03-07T02:39:30;1.60;99.90
6843;DHT22;3460;52.028;8.916;2024-03-07T02:41:57;1.70;99.90
6843;DHT22;3460;52.028;8.916;2024-03-07T02:44:24;1.70;99.90
6843;DHT22;3460;52.028;8.916;2024-03-07T02:46:50;1.60;99.90
6843;DHT22;3460;52.028;8.916;2024-03-07T02:49:17;1.60;99.90
6843;DHT22;3460;52.028;8.916;2024-03-07T02:51:46;1.60;99.90
6843;DHT22;3460;52.028;8.916;2024-03-07T02:54:12;1.50;99.90
6843;DHT22;3460;52.028;8.916;2024-03-07T02:56:41;1.40;99.90
6843;DHT22;3460;52.028;8.916;2024-03-07T02:59:07;1.50;99.90
6843;DHT22;3460;52.028;8.916;2024-03-07T03:01:34;1.40;99.90
6843;DHT22;3460;52.028;8.916;2024-03-07T03:04:01;1.50;99.90
6843;DHT22;3460;52.028;8.916;2024-03-07T03:06:28;1.50;99.90
6843;DHT22;3460;52.028;8.916;2024-03-07T03:08:55;1.50;99.90
6843;DHT22;3460;52.028;8.916;2024-03-07T03:11:21;1.40;99.90
6843;DHT22;3460;52.028;8.916;2024-03-07T03:13:50;1.50;99.90
6843;DHT22;3460;52.028;8.916;2024-03-07T03:16:16;1.50;99.90
6843;DHT22;3460;52.028;8.916;2024-03-07T03:18:43;1.30;99.90
6843;DHT22;3460;52.028;8.916;2024-03-07T03:21:10;1.20;99.90
6843;DHT22;3460;52.028;8.916;2024-03-07T03:23:37;1.20;99.90
6843;DHT22;3460;52.028;8.916;2024-03-07T03:26:03;1.20;99.90
6843;DHT22;3460;52.028;8.916;2024-03-07T03:28:30;1.10;99.90
6843;DHT22;3460;52.028;8.916;2024-03-07T03:30:58;1.10;99.90
6843;DHT22;3460;52.028;8.916;2024-03-07T03:33:25;1.10;99.90
6843;DHT22;3460;52.028;8.916;2024-03-07T03:35:52;1.10;99.90
6843;DHT22;3460;52.028;8.916;2024-03-07T03:38:20;1.00;99.90
6843;DHT22;3460;52.028;8.916;2024-03-07T03:40:47;1.00;99.90
6843;DHT22;3460;52.028;8.916;2024-03-07T03:43:14;0.90;99.90
6843;DHT22;3460;52.028;8.916;2024-03-07T03:45:41;0.90;99.90
6843;DHT22;3460;52.028;8.916;2024-03-07T03:48:09;0.90;99.90
6843;DHT22;3460;52.028;8.916;2024-03-07T03:50:36;0.90;99.90
6843;DHT22;3460;52.028;8.916;2024-03-07T03:53:03;0.80;99.90
6843;DHT22;3460;52.028;8.916;2024-03-07T03:55:31;0.80;99.90
6843;DHT22;3460;52.028;8.916;2024-03-07T03:57:58;0.80;99.90
6843;DHT22;3460;52.028;8.916;2024-03-07T04:00:25;0.80;99.90
6843;DHT22;3460;52.028;8.916;2024-03-07T04:02:52;0.80;99.90
6843;DHT22;3460;52.028;8.916;2024-03-07T04:05:20;0.80;99.90
6843;DHT22;3460;52.028;8.916;2024-03-07T04:07:47;0.80;99.90
6843;DHT22;3460;52.028;8.916;2024-03-07T04:10:15;0.80;99.90
6843;DHT22;3460;52.028;8.916;2024-03-07T04:12:43;0.90;99.90
6843;DHT22;3460;52.028;8.916;2024-03-07T04:15:11;0.90;99.90
6843;DHT22;3460;52.028;8.916;2024-03-07T04:17:39;0.90;99.90
6843;DHT22;3460;52.028;8.916;2024-03-07T04:20:07;1.00;99.90
6843;DHT22;3460;52.028;8.916;2024-03-07T04:22:37;1.00;99.90
6843;DHT22;3460;52.028;8.916;2024-03-07T04:25:06;1.10;99.90
6843;DHT22;3460;52.028;8.916;2024-03-07T04:27:33;1.10;99.90
6843;DHT22;3460;52.028;8.916;2024-03-07T04:30:02;1.10;99.90
6843;DHT22;3460;52.028;8.916;2024-03-07T04:32:30;1.20;99.90
6843;DHT22;3460;52.028;8.916;2024-03-07T04:34:57;1.30;99.90
6843;DHT22;3460;52.028;8.916;2024-03-07T04:37:24;1.30;99.90
6843;DHT22;3460;52.028;8.916;2024-03-07T04:39:54;1.50;99.90
6843;DHT22;3460;52.028;8.916;2024-03-07T04:42:21;1.50;99.90
6843;DHT22;3460;52.028;8.916;2024-03-07T04:44:47;1.50;99.90
6843;DHT22;3460;52.028;8.916;2024-03-07T04:47:14;1.50;99.90
6843;DHT22;3460;52.028;8.916;2024-03-07T04:49:42;1.50;99.90
6843;DHT22;3460;52.028;8.916;2024-03-07T04:52:09;1.60;99.90
6843;DHT22;3460;52.028;8.916;2024-03-07T04:54:36;1.60;99.90
6843;DHT22;3460;52.028;8.916;2024-03-07T04:57:04;1.60;99.90
6843;DHT22;3460;52.028;8.916;2024-03-07T04:59:31;1.80;99.90
6843;DHT22;3460;52.028;8.916;2024-03-07T05:01:58;2.00;99.90
6843;DHT22;3460;52.028;8.916;2024-03-07T05:04:24;2.10;99.90
6843;DHT22;3460;52.028;8.916;2024-03-07T05:06:54;2.10;99.90
6843;DHT22;3460;52.028;8.916;2024-03-07T05:09:23;2.10;99.90
6843;DHT22;3460;52.028;8.916;2024-03-07T05:11:51;2.10;99.90
6843;DHT22;3460;52.028;8.916;2024-03-07T05:14:20;2.10;99.90
6843;DHT22;3460;52.028;8.916;2024-03-07T05:16:47;2.10;99.90
6843;DHT22;3460;52.028;8.916;2024-03-07T05:19:30;2.10;99.90
6843;DHT22;3460;52.028;8.916;2024-03-07T05:21:57;2.20;99.90
6843;DHT22;3460;52.028;8.916;2024-03-07T05:24:24;2.20;99.90
6843;DHT22;3460;52.028;8.916;2024-03-07T05:26:51;2.20;99.90
6843;DHT22;3460;52.028;8.916;2024-03-07T05:29:20;2.30;99.90
6843;DHT22;3460;52.028;8.916;2024-03-07T05:31:47;2.40;99.90
6843;DHT22;3460;52.028;8.916;2024-03-07T05:34:14;2.40;99.90
6843;DHT22;3460;52.028;8.916;2024-03-07T05:36:42;2.50;99.90
6843;DHT22;3460;52.028;8.916;2024-03-07T05:39:10;2.50;99.90
6843;DHT22;3460;52.028;8.916;2024-03-07T05:41:37;2.60;99.90
6843;DHT22;3460;52.028;8.916;2024-03-07T05:44:04;2.60;99.90
6843;DHT22;3460;52.028;8.916;2024-03-07T05:46:36;2.90;99.90
6843;DHT22;3460;52.028;8.916;2024-03-07T05:49:06;3.00;99.90
6843;DHT22;3460;52.028;8.916;2024-03-07T05:51:33;3.00;99.90
6843;DHT22;3460;52.028;8.916;2024-03-07T05:54:00;3.10;99.90
6843;DHT22;3460;52.028;8.916;2024-03-07T05:56:27;3.10;99.90
6843;DHT22;3460;52.028;8.916;2024-03-07T05:58:54;3.10;99.90
6843;DHT22;3460;52.028;8.916;2024-03-07T06:01:21;3.20;99.90
6843;DHT22;3460;52.028;8.916;2024-03-07T06:03:52;3.20;99.90
6843;DHT22;3460;52.028;8.916;2024-03-07T06:06:19;3.20;99.90
6843;DHT22;3460;52.028;8.916;2024-03-07T06:08:46;3.30;99.90
6843;DHT22;3460;52.028;8.916;2024-03-07T06:11:13;3.40;99.90
6843;DHT22;3460;52.028;8.916;2024-03-07T06:13:46;3.50;99.90
6843;DHT22;3460;52.028;8.916;2024-03-07T06:16:12;3.50;99.90
6843;DHT22;3460;52.028;8.916;2024-03-07T06:18:40;3.70;99.90
6843;DHT22;3460;52.028;8.916;2024-03-07T06:21:08;3.70;99.90
6843;DHT22;3460;52.028;8.916;2024-03-07T06:23:35;3.70;99.90
6843;DHT22;3460;52.028;8.916;2024-03-07T06:26:02;3.70;99.90
6843;DHT22;3460;52.028;8.916;2024-03-07T06:28:38;3.80;99.90
6843;DHT22;3460;52.028;8.916;2024-03-07T06:31:04;3.80;99.90
6843;DHT22;3460;52.028;8.916;2024-03-07T06:33:33;3.80;99.90
6843;DHT22;3460;52.028;8.916;2024-03-07T06:36:00;4.00;99.90
6843;DHT22;3460;52.028;8.916;2024-03-07T06:38:29;4.10;99.90
6843;DHT22;3460;52.028;8.916;2024-03-07T06:40:55;4.10;99.90
6843;DHT22;3460;52.028;8.916;2024-03-07T06:43:22;4.20;99.90
6843;DHT22;3460;52.028;8.916;2024-03-07T06:45:49;4.30;99.90
6843;DHT22;3460;52.028;8.916;2024-03-07T06:48:17;4.40;99.90
6843;DHT22;3460;52.028;8.916;2024-03-07T06:50:44;4.50;99.90
6843;DHT22;3460;52.028;8.916;2024-03-07T06:53:11;4.50;99.90
6843;DHT22;3460;52.028;8.916;2024-03-07T06:55:39;4.50;99.90
6843;DHT22;3460;52.028;8.916;2024-03-07T06:58:05;4.50;99.20
6843;DHT22;3460;52.028;8.916;2024-03-07T07:00:32;4.60;99.90
6843;DHT22;3460;52.028;8.916;2024-03-07T07:03:01;4.60;99.90
6843;DHT22;3460;52.028;8.916;2024-03-07T07:05:30;4.60;99.90
6843;DHT22;3460;52.028;8.916;2024-03-07T07:07:57;4.70;99.90
6843;DHT22;3460;52.028;8.916;2024-03-07T07:10:24;4.60;99.90
6843;DHT22;3460;52.028;8.916;2024-03-07T07:12:52;4.60;99.90
6843;DHT22;3460;52.028;8.916;2024-03-07T07:15:20;4.60;90.30
6843;DHT22;3460;52.028;8.916;2024-03-07T07:17:48;4.50;99.90
6843;DHT22;3460;52.028;8.916;2024-03-07T07:20:16;4.40;99.90
6843;DHT22;3460;52.028;8.916;2024-03-07T07:22:44;4.50;99.90
6843;DHT22;3460;52.028;8.916;2024-03-07T07:25:11;4.40;99.90
6843;DHT22;3460;52.028;8.916;2024-03-07T07:27:40;4.40;99.90
6843;DHT22;3460;52.028;8.916;2024-03-07T07:30:10;4.30;99.90
6843;DHT22;3460;52.028;8.916;2024-03-07T07:32:38;4.40;99.90
6843;DHT22;3460;52.028;8.916;2024-03-07T07:35:05;4.30;99.90
6843;DHT22;3460;52.028;8.916;2024-03-07T07:37:35;4.40;99.90
6843;DHT22;3460;52.028;8.916;2024-03-07T07:40:02;4.40;99.90
6843;DHT22;3460;52.028;8.916;2024-03-07T07:42:29;4.50;99.90
6843;DHT22;3460;52.028;8.916;2024-03-07T07:44:56;4.40;99.90
6843;DHT22;3460;52.028;8.916;2024-03-07T07:47:24;4.40;99.90
6843;DHT22;3460;52.028;8.916;2024-03-07T07:49:51;4.40;99.90
6843;DHT22;3460;52.028;8.916;2024-03-07T07:52:17;4.30;99.90
6843;DHT22;3460;52.028;8.916;2024-03-07T07:54:43;4.40;99.90
6843;DHT22;3460;52.028;8.916;2024-03-07T07:57:10;4.30;99.90
6843;DHT22;3460;52.028;8.916;2024-03-07T07:59:37;4.40;99.90
6843;DHT22;3460;52.028;8.916;2024-03-07T08:02:04;4.40;99.90
6843;DHT22;3460;52.028;8.916;2024-03-07T08:04:33;4.40;99.90
6843;DHT22;3460;52.028;8.916;2024-03-07T08:07:00;4.40;99.90
6843;DHT22;3460;52.028;8.916;2024-03-07T08:09:27;4.50;99.90
6843;DHT22;3460;52.028;8.916;2024-03-07T08:11:54;4.50;99.90
6843;DHT22;3460;52.028;8.916;2024-03-07T08:14:20;4.60;99.90
6843;DHT22;3460;52.028;8.916;2024-03-07T08:16:48;4.50;99.90
6843;DHT22;3460;52.028;8.916;2024-03-07T08:19:16;4.60;99.90
6843;DHT22;3460;52.028;8.916;2024-03-07T08:21:44;4.70;99.90
6843;DHT22;3460;52.028;8.916;2024-03-07T08:24:10;4.80;99.90
6843;DHT22;3460;52.028;8.916;2024-03-07T08:26:37;4.80;99.90
6843;DHT22;3460;52.028;8.916;2024-03-07T08:29:09;4.80;99.90
6843;DHT22;3460;52.028;8.916;2024-03-07T08:31:36;4.70;99.90
6843;DHT22;3460;52.028;8.916;2024-03-07T08:34:03;4.70;99.90
6843;DHT22;3460;52.028;8.916;2024-03-07T08:36:30;4.70;99.90
6843;DHT22;3460;52.028;8.916;2024-03-07T08:38:58;4.60;99.90
6843;DHT22;3460;52.028;8.916;2024-03-07T08:41:25;4.60;99.90
6843;DHT22;3460;52.028;8.916;2024-03-07T08:43:51;4.50;99.90
6843;DHT22;3460;52.028;8.916;2024-03-07T08:46:18;4.50;99.90
6843;DHT22;3460;52.028;8.916;2024-03-07T08:48:45;4.40;99.90
6843;DHT22;3460;52.028;8.916;2024-03-07T08:51:12;4.40;99.90
6843;DHT22;3460;52.028;8.916;2024-03-07T08:53:38;4.40;99.90
6843;DHT22;3460;52.028;8.916;2024-03-07T08:56:07;4.40;99.90
6843;DHT22;3460;52.028;8.916;2024-03-07T08:58:33;4.40;99.90
6843;DHT22;3460;52.028;8.916;2024-03-07T09:01:00;4.40;99.90
6843;DHT22;3460;52.028;8.916;2024-03-07T09:03:27;4.40;99.90
6843;DHT22;3460;52.028;8.916;2024-03-07T09:05:54;4.40;99.90
6843;DHT22;3460;52.028;8.916;2024-03-07T09:08:21;4.50;99.90
6843;DHT22;3460;52.028;8.916;2024-03-07T09:10:47;4.50;99.90
6843;DHT22;3460;52.028;8.916;2024-03-07T09:13:15;4.50;99.90
6843;DHT22;3460;52.028;8.916;2024-03-07T09:15:42;4.60;99.90
6843;DHT22;3460;52.028;8.916;2024-03-07T09:18:09;4.70;99.90
6843;DHT22;3460;52.028;8.916;2024-03-07T09:20:36;4.70;99.90
6843;DHT22;3460;52.028;8.916;2024-03-07T09:23:03;4.70;99.90
6843;DHT22;3460;52.028;8.916;2024-03-07T09:25:30;4.70;99.90
6843;DHT22;3460;52.028;8.916;2024-03-07T09:27:58;4.70;99.90
6843;DHT22;3460;52.028;8.916;2024-03-07T09:30:27;4.70;99.90
6843;DHT22;3460;52.028;8.916;2024-03-07T09:32:54;4.70;99.90
6843;DHT22;3460;52.028;8.916;2024-03-07T09:35:21;4.70;99.90
6843;DHT22;3460;52.028;8.916;2024-03-07T09:37:48;4.70;99.90
6843;DHT22;3460;52.028;8.916;2024-03-07T09:40:15;4.60;99.90
6843;DHT22;3460;52.028;8.916;2024-03-07T09:42:43;4.70;99.90
6843;DHT22;3460;52.028;8.916;2024-03-07T09:45:14;4.70;99.90
6843;DHT22;3460;52.028;8.916;2024-03-07T09:47:46;4.70;99.90
6843;DHT22;3460;52.028;8.916;2024-03-07T09:50:15;4.70;99.90
6843;DHT22;3460;52.028;8.916;2024-03-07T09:52:46;4.80;99.90
6843;DHT22;3460;52.028;8.916;2024-03-07T09:55:15;4.80;99.90
6843;DHT22;3460;52.028;8.916;2024-03-07T09:57:43;4.90;99.90
6843;DHT22;3460;52.028;8.916;2024-03-07T10:00:11;4.90;99.90
6843;DHT22;3460;52.028;8.916;2024-03-07T10:02:53;4.90;99.90
6843;DHT22;3460;52.028;8.916;2024-03-07T10:05:22;4.80;99.90
6843;DHT22;3460;52.028;8.916;2024-03-07T10:07:50;4.70;99.90
6843;DHT22;3460;52.028;8.916;2024-03-07T10:10:17;4.80;99.90
6843;DHT22;3460;52.028;8.916;2024-03-07T10:12:44;4.80;99.90
6843;DHT22;3460;52.028;8.916;2024-03-07T10:15:11;4.90;99.90
6843;DHT22;3460;52.028;8.916;2024-03-07T10:17:39;4.80;99.90
6843;DHT22;3460;52.028;8.916;2024-03-07T10:20:08;4.80;99.90
6843;DHT22;3460;52.028;8.916;2024-03-07T10:22:39;4.80;99.90
6843;DHT22;3460;52.028;8.916;2024-03-07T10:25:07;4.80;99.90
6843;DHT22;3460;52.028;8.916;2024-03-07T10:27:36;4.80;99.90
6843;DHT22;3460;52.028;8.916;2024-03-07T10:30:04;4.80;99.90
6843;DHT22;3460;52.028;8.916;2024-03-07T10:32:33;4.80;99.90
6843;DHT22;3460;52.028;8.916;2024-03-07T10:35:00;4.80;99.90
6843;DHT22;3460;52.028;8.916;2024-03-07T10:37:30;4.90;99.90
6843;DHT22;3460;52.028;8.916;2024-03-07T10:39:57;4.90;99.90
6843;DHT22;3460;52.028;8.916;2024-03-07T10:42:28;5.10;99.90
6843;DHT22;3460;52.028;8.916;2024-03-07T10:45:02;5.10;99.90
6843;DHT22;3460;52.028;8.916;2024-03-07T10:47:31;5.20;99.90
6843;DHT22;3460;52.028;8.916;2024-03-07T10:50:13;5.20;99.90
6843;DHT22;3460;52.028;8.916;2024-03-07T10:52:49;5.20;99.90
6843;DHT22;3460;52.028;8.916;2024-03-07T10:55:23;5.20;99.90
6843;DHT22;3460;52.028;8.916;2024-03-07T10:57:52;5.30;99.90
6843;DHT22;3460;52.028;8.916;2024-03-07T11:00:22;5.30;99.90
6843;DHT22;3460;52.028;8.916;2024-03-07T11:03:01;5.40;99.90
6843;DHT22;3460;52.028;8.916;2024-03-07T11:05:33;5.60;99.90
6843;DHT22;3460;52.028;8.916;2024-03-07T11:08:02;5.70;99.90
6843;DHT22;3460;52.028;8.916;2024-03-07T11:10:35;5.70;99.90
6843;DHT22;3460;52.028;8.916;2024-03-07T11:13:03;5.60;99.90
6843;DHT22;3460;52.028;8.916;2024-03-07T11:15:32;5.60;99.90
6843;DHT22;3460;52.028;8.916;2024-03-07T11:17:59;5.50;99.90
6843;DHT22;3460;52.028;8.916;2024-03-07T11:20:34;5.50;99.90
6843;DHT22;3460;52.028;8.916;2024-03-07T11:23:25;5.60;99.90
6843;DHT22;3460;52.028;8.916;2024-03-07T11:25:54;5.70;99.90
6843;DHT22;3460;52.028;8.916;2024-03-07T11:28:28;5.70;99.90
6843;DHT22;3460;52.028;8.916;2024-03-07T11:31:07;5.80;99.90
6843;DHT22;3460;52.028;8.916;2024-03-07T11:33:36;5.90;99.90
6843;DHT22;3460;52.028;8.916;2024-03-07T11:36:06;6.00;99.90
6843;DHT22;3460;52.028;8.916;2024-03-07T11:38:34;6.00;99.90
6843;DHT22;3460;52.028;8.916;2024-03-07T11:41:01;6.10;99.90
6843;DHT22;3460;52.028;8.916;2024-03-07T11:43:30;6.20;99.90
6843;DHT22;3460;52.028;8.916;2024-03-07T11:45:56;6.30;99.90
6843;DHT22;3460;52.028;8.916;2024-03-07T11:48:23;6.50;99.90
6843;DHT22;3460;52.028;8.916;2024-03-07T11:50:50;6.70;99.90
6843;DHT22;3460;52.028;8.916;2024-03-07T11:53:17;6.70;34.50
6843;DHT22;3460;52.028;8.916;2024-03-07T11:55:45;6.70;1.00
6843;DHT22;3460;52.028;8.916;2024-03-07T11:58:14;6.70;1.00
6843;DHT22;3460;52.028;8.916;2024-03-07T12:00:42;6.70;1.00
6843;DHT22;3460;52.028;8.916;2024-03-07T12:03:11;6.70;1.00
6843;DHT22;3460;52.028;8.916;2024-03-07T12:05:40;6.80;1.00
6843;DHT22;3460;52.028;8.916;2024-03-07T12:08:07;6.90;99.90
6843;DHT22;3460;52.028;8.916;2024-03-07T12:10:36;6.80;99.90
6843;DHT22;3460;52.028;8.916;2024-03-07T12:13:06;6.80;99.90
6843;DHT22;3460;52.028;8.916;2024-03-07T12:15:33;6.90;31.40
6843;DHT22;3460;52.028;8.916;2024-03-07T12:18:01;7.00;85.90
6843;DHT22;3460;52.028;8.916;2024-03-07T12:20:34;7.10;99.90
6843;DHT22;3460;52.028;8.916;2024-03-07T12:23:02;7.20;1.00
6843;DHT22;3460;52.028;8.916;2024-03-07T12:25:31;7.30;99.90
6843;DHT22;3460;52.028;8.916;2024-03-07T12:28:08;7.40;1.00
6843;DHT22;3460;52.028;8.916;2024-03-07T12:30:48;7.40;1.00
6843;DHT22;3460;52.028;8.916;2024-03-07T12:33:16;7.40;99.90
6843;DHT22;3460;52.028;8.916;2024-03-07T12:35:44;7.40;99.90
6843;DHT22;3460;52.028;8.916;2024-03-07T12:38:11;7.50;1.00
6843;DHT22;3460;52.028;8.916;2024-03-07T12:40:40;7.30;1.00
6843;DHT22;3460;52.028;8.916;2024-03-07T12:43:17;7.20;1.00
6843;DHT22;3460;52.028;8.916;2024-03-07T12:45:53;7.20;99.90
6843;DHT22;3460;52.028;8.916;2024-03-07T12:48:20;7.20;99.90
6843;DHT22;3460;52.028;8.916;2024-03-07T12:50:48;7.30;99.90
6843;DHT22;3460;52.028;8.916;2024-03-07T12:53:18;7.20;99.90
6843;DHT22;3460;52.028;8.916;2024-03-07T12:55:45;7.20;1.00
6843;DHT22;3460;52.028;8.916;2024-03-07T12:58:12;7.30;99.90
6843;DHT22;3460;52.028;8.916;2024-03-07T13:00:40;7.40;1.00
6843;DHT22;3460;52.028;8.916;2024-03-07T13:03:08;7.40;99.90
6843;DHT22;3460;52.028;8.916;2024-03-07T13:05:35;7.50;20.10
6843;DHT22;3460;52.028;8.916;2024-03-07T13:08:06;7.70;32.90
6843;DHT22;3460;52.028;8.916;2024-03-07T13:10:37;7.80;1.00
6843;DHT22;3460;52.028;8.916;2024-03-07T13:13:04;7.80;99.90
6843;DHT22;3460;52.028;8.916;2024-03-07T13:15:31;7.90;99.90
6843;DHT22;3460;52.028;8.916;2024-03-07T13:17:59;7.80;99.90
6843;DHT22;3460;52.028;8.916;2024-03-07T13:20:25;7.70;1.00
6843;DHT22;3460;52.028;8.916;2024-03-07T13:22:52;7.70;1.00
6843;DHT22;3460;52.028;8.916;2024-03-07T13:25:23;7.90;1.00
6843;DHT22;3460;52.028;8.916;2024-03-07T13:27:55;7.80;1.00
6843;DHT22;3460;52.028;8.916;2024-03-07T13:30:23;7.90;1.00
6843;DHT22;3460;52.028;8.916;2024-03-07T13:32:53;8.00;1.00
6843;DHT22;3460;52.028;8.916;2024-03-07T13:35:22;8.10;16.40
6843;DHT22;3460;52.028;8.916;2024-03-07T13:37:50;8.00;1.00
6843;DHT22;3460;52.028;8.916;2024-03-07T13:40:17;7.80;99.90
6843;DHT22;3460;52.028;8.916;2024-03-07T13:42:51;7.60;99.90
6843;DHT22;3460;52.028;8.916;2024-03-07T13:45:23;7.60;1.00
6843;DHT22;3460;52.028;8.916;2024-03-07T13:47:52;7.60;99.90
6843;DHT22;3460;52.028;8.916;2024-03-07T13:50:22;7.60;99.90
6843;DHT22;3460;52.028;8.916;2024-03-07T13:52:50;7.60;1.00
6843;DHT22;3460;52.028;8.916;2024-03-07T13:55:41;7.60;1.00
6843;DHT22;3460;52.028;8.916;2024-03-07T13:58:16;7.60;1.00
6843;DHT22;3460;52.028;8.916;2024-03-07T14:00:49;7.70;99.90
6843;DHT22;3460;52.028;8.916;2024-03-07T14:03:44;7.70;99.90
6843;DHT22;3460;52.028;8.916;2024-03-07T14:06:23;7.50;99.90
6843;DHT22;3460;52.028;8.916;2024-03-07T14:12:37;7.50;99.90
6843;DHT22;3460;52.028;8.916;2024-03-07T14:15:42;7.60;99.90
6843;DHT22;3460;52.028;8.916;2024-03-07T14:21:26;7.70;1.00
6843;DHT22;3460;52.028;8.916;2024-03-07T14:27:22;7.60;99.90
6843;DHT22;3460;52.028;8.916;2024-03-07T14:29:59;7.50;1.00
6843;DHT22;3460;52.028;8.916;2024-03-07T14:32:31;7.40;1.00
6843;DHT22;3460;52.028;8.916;2024-03-07T14:35:03;7.30;99.90
6843;DHT22;3460;52.028;8.916;2024-03-07T14:37:38;7.30;99.90
6843;DHT22;3460;52.028;8.916;2024-03-07T14:40:13;7.40;99.90
6843;DHT22;3460;52.028;8.916;2024-03-07T14:42:44;7.40;99.90
6843;DHT22;3460;52.028;8.916;2024-03-07T14:45:13;7.40;99.90
6843;DHT22;3460;52.028;8.916;2024-03-07T14:47:43;7.50;99.90
6843;DHT22;3460;52.028;8.916;2024-03-07T14:50:11;7.70;99.90
6843;DHT22;3460;52.028;8.916;2024-03-07T14:52:39;7.70;1.00
6843;DHT22;3460;52.028;8.916;2024-03-07T14:55:07;7.80;1.00
6843;DHT22;3460;52.028;8.916;2024-03-07T14:57:36;7.70;1.00
6843;DHT22;3460;52.028;8.916;2024-03-07T15:00:06;7.50;99.90
6843;DHT22;3460;52.028;8.916;2024-03-07T15:02:43;7.50;99.90
6843;DHT22;3460;52.028;8.916;2024-03-07T15:05:11;7.50;1.00
6843;DHT22;3460;52.028;8.916;2024-03-07T15:07:39;7.40;1.00
6843;DHT22;3460;52.028;8.916;2024-03-07T15:10:13;7.50;1.00
6843;DHT22;3460;52.028;8.916;2024-03-07T15:12:44;7.50;1.00
6843;DHT22;3460;52.028;8.916;2024-03-07T15:15:12;7.70;1.00
6843;DHT22;3460;52.028;8.916;2024-03-07T15:17:39;7.80;1.00
6843;DHT22;3460;52.028;8.916;2024-03-07T15:20:08;7.80;1.00
6843;DHT22;3460;52.028;8.916;2024-03-07T15:22:41;7.60;1.00
6843;DHT22;3460;52.028;8.916;2024-03-07T15:25:12;7.40;1.00
6843;DHT22;3460;52.028;8.916;2024-03-07T15:27:39;7.30;99.90
6843;DHT22;3460;52.028;8.916;2024-03-07T15:30:07;7.30;1.00
6843;DHT22;3460;52.028;8.916;2024-03-07T15:32:39;7.20;1.00
6843;DHT22;3460;52.028;8.916;2024-03-07T15:35:07;7.20;1.00
6843;DHT22;3460;52.028;8.916;2024-03-07T15:37:38;7.20;1.00
6843;DHT22;3460;52.028;8.916;2024-03-07T15:40:08;7.20;1.00
6843;DHT22;3460;52.028;8.916;2024-03-07T15:42:38;7.20;99.90
6843;DHT22;3460;52.028;8.916;2024-03-07T15:45:06;7.20;1.00
6843;DHT22;3460;52.028;8.916;2024-03-07T15:47:42;7.20;1.00
6843;DHT22;3460;52.028;8.916;2024-03-07T15:50:09;7.30;1.00
6843;DHT22;3460;52.028;8.916;2024-03-07T15:52:38;7.40;99.90
6843;DHT22;3460;52.028;8.916;2024-03-07T15:55:08;7.40;99.90
6843;DHT22;3460;52.028;8.916;2024-03-07T15:57:42;7.30;99.90
6843;DHT22;3460;52.028;8.916;2024-03-07T16:00:10;7.20;99.90
6843;DHT22;3460;52.028;8.916;2024-03-07T16:02:49;7.20;99.90
6843;DHT22;3460;52.028;8.916;2024-03-07T16:05:16;7.10;99.90
6843;DHT22;3460;52.028;8.916;2024-03-07T16:07:43;7.10;99.90
6843;DHT22;3460;52.028;8.916;2024-03-07T16:10:11;7.00;99.90
6843;DHT22;3460;52.028;8.916;2024-03-07T16:12:39;7.00;99.90
6843;DHT22;3460;52.028;8.916;2024-03-07T16:15:06;7.00;99.90
6843;DHT22;3460;52.028;8.916;2024-03-07T16:17:34;7.00;99.90
6843;DHT22;3460;52.028;8.916;2024-03-07T16:20:02;6.90;99.90
6843;DHT22;3460;52.028;8.916;2024-03-07T16:22:29;6.90;99.90
6843;DHT22;3460;52.028;8.916;2024-03-07T16:24:56;6.90;99.90
6843;DHT22;3460;52.028;8.916;2024-03-07T16:27:27;6.90;99.90
6843;DHT22;3460;52.028;8.916;2024-03-07T16:29:55;6.90;99.90
6843;DHT22;3460;52.028;8.916;2024-03-07T16:32:21;6.80;99.90
6843;DHT22;3460;52.028;8.916;2024-03-07T16:34:48;6.80;99.90
6843;DHT22;3460;52.028;8.916;2024-03-07T16:37:16;6.80;99.90
6843;DHT22;3460;52.028;8.916;2024-03-07T16:39:42;6.70;99.90
6843;DHT22;3460;52.028;8.916;2024-03-07T16:42:10;6.70;99.90